Time;durP1;ratioP1;P1;durP2;ratioP2;P2;SDS_P1;SDS_P2;PMS_P1;PMS_P2;Temp;Humidity;BMP_temperature;BMP_pressure;BME280_temperature;BME280_humidity;BME280_pressure;Samples;Min_cycle;Max_cycle;Signal;HPM_P1;HPM_P2
2020/12/30 00:00:36;;;;;;;1.27;0.55;;;;;;;;;;5030408;28;20018;-85
2020/12/30 00:03:02;;;;;;;0.43;0.43;;;;;;;;;;5028628;28;20029;-86
2020/12/30 00:05:29;;;;;;;0.30;0.30;;;;;;;;;;5011147;28;20037;-86
2020/12/30 00:07:55;;;;;;;0.93;0.80;;;;;;;;;;5012375;28;20743;-86
2020/12/30 00:10:22;;;;;;;0.90;0.57;;;;;;;;;;5028502;28;20435;-86
2020/12/30 00:12:48;;;;;;;0.70;0.60;;;;;;;;;;5011610;28;20037;-86
2020/12/30 00:15:14;;;;;;;0.40;0.40;;;;;;;;;;5010203;28;20488;-86
2020/12/30 00:17:41;;;;;;;0.60;0.60;;;;;;;;;;5021426;28;20033;-85
2020/12/30 00:20:13;;;;;;;0.45;0.30;;;;;;;;;;5027978;28;20104;-86
2020/12/30 00:22:39;;;;;;;0.50;0.50;;;;;;;;;;5011122;28;20451;-86
2020/12/30 00:25:06;;;;;;;0.50;0.50;;;;;;;;;;5011346;28;20152;-86
2020/12/30 00:27:32;;;;;;;1.67;0.50;;;;;;;;;;5029948;28;20484;-86
2020/12/30 00:29:58;;;;;;;0.50;0.50;;;;;;;;;;5011822;28;20148;-86
2020/12/30 00:32:24;;;;;;;0.85;0.50;;;;;;;;;;5028749;28;20025;-85
2020/12/30 00:34:50;;;;;;;0.65;0.45;;;;;;;;;;5028180;28;20049;-86
2020/12/30 00:37:16;;;;;;;1.25;0.60;;;;;;;;;;5006499;28;20022;-85
2020/12/30 00:39:42;;;;;;;0.57;0.47;;;;;;;;;;4990569;28;20397;-85
2020/12/30 00:42:08;;;;;;;0.80;0.70;;;;;;;;;;4991201;28;20389;-86
2020/12/30 00:44:34;;;;;;;0.47;0.38;;;;;;;;;;5008766;28;20033;-85
2020/12/30 00:47:01;;;;;;;0.43;0.43;;;;;;;;;;4992512;28;20038;-86
2020/12/30 00:49:27;;;;;;;0.30;0.30;;;;;;;;;;4992381;28;20034;-86
2020/12/30 00:51:54;;;;;;;0.43;0.30;;;;;;;;;;5008533;28;20114;-86
2020/12/30 00:54:20;;;;;;;0.17;0.17;;;;;;;;;;5009151;28;20125;-86
2020/12/30 00:56:47;;;;;;;2.42;0.90;;;;;;;;;;5011408;28;20033;-86
2020/12/30 00:59:13;;;;;;;0.63;0.63;;;;;;;;;;4995698;28;20041;-86
2020/12/30 01:01:40;;;;;;;0.50;0.50;;;;;;;;;;4994745;28;20030;-85
2020/12/30 01:04:06;;;;;;;0.63;0.63;;;;;;;;;;4994742;28;20030;-86
2020/12/30 01:06:32;;;;;;;0.70;0.70;;;;;;;;;;4994322;28;20124;-86
2020/12/30 01:08:58;;;;;;;0.40;0.30;;;;;;;;;;4995404;28;20622;-85
2020/12/30 01:11:27;;;;;;;1.83;0.50;;;;;;;;;;5013092;28;20464;-86
2020/12/30 01:13:54;;;;;;;2.00;0.47;;;;;;;;;;4994604;28;20120;-86
2020/12/30 01:16:20;;;;;;;0.40;0.40;;;;;;;;;;5012846;28;20022;-86
2020/12/30 01:18:46;;;;;;;1.65;0.65;;;;;;;;;;4995377;28;20050;-86
2020/12/30 01:21:12;;;;;;;0.60;0.50;;;;;;;;;;4995507;28;20022;-86
2020/12/30 01:23:39;;;;;;;0.30;0.30;;;;;;;;;;5011924;28;20022;-86
2020/12/30 01:26:05;;;;;;;0.52;0.50;;;;;;;;;;4994861;28;20402;-86
2020/12/30 01:28:31;;;;;;;0.68;0.38;;;;;;;;;;4995494;28;20613;-86
2020/12/30 01:30:57;;;;;;;0.38;0.38;;;;;;;;;;4995320;28;20065;-86
2020/12/30 01:33:23;;;;;;;0.40;0.22;;;;;;;;;;5012207;28;20087;-85
2020/12/30 01:35:49;;;;;;;0.40;0.40;;;;;;;;;;5011163;28;20032;-86
2020/12/30 01:38:15;;;;;;;0.28;0.28;;;;;;;;;;5025340;28;20392;-86
2020/12/30 01:40:42;;;;;;;0.47;0.45;;;;;;;;;;5014568;28;20053;-85
2020/12/30 01:43:09;;;;;;;0.65;0.52;;;;;;;;;;5032123;28;20026;-85
2020/12/30 01:45:36;;;;;;;1.20;0.60;;;;;;;;;;5013986;28;20035;-86
2020/12/30 01:48:06;;;;;;;0.20;0.20;;;;;;;;;;5032697;28;20049;-85
2020/12/30 01:50:32;;;;;;;1.67;0.32;;;;;;;;;;5014458;28;20487;-86
2020/12/30 01:52:59;;;;;;;0.47;0.38;;;;;;;;;;5013910;28;20033;-86
2020/12/30 01:55:26;;;;;;;0.60;0.40;;;;;;;;;;5031993;28;20507;-86
2020/12/30 01:57:52;;;;;;;0.30;0.30;;;;;;;;;;5013901;28;20033;-85
2020/12/30 02:00:18;;;;;;;0.77;0.75;;;;;;;;;;5013239;28;20024;-86
2020/12/30 02:02:47;;;;;;;0.35;0.30;;;;;;;;;;5013658;28;20697;-86
2020/12/30 02:05:17;;;;;;;0.77;0.75;;;;;;;;;;5029611;28;20091;-86
2020/12/30 02:07:43;;;;;;;0.30;0.30;;;;;;;;;;5031863;28;20033;-85
2020/12/30 02:10:09;;;;;;;1.23;0.52;;;;;;;;;;5031930;28;20032;-85
2020/12/30 02:12:36;;;;;;;0.50;0.22;;;;;;;;;;5030165;28;20041;-86
2020/12/30 02:15:02;;;;;;;0.30;0.30;;;;;;;;;;5011448;28;20079;-86
2020/12/30 02:17:28;;;;;;;0.43;0.43;;;;;;;;;;5030862;28;20112;-86
2020/12/30 02:19:55;;;;;;;0.20;0.20;;;;;;;;;;5017462;28;20022;-86
2020/12/30 02:22:22;;;;;;;0.52;0.52;;;;;;;;;;4991622;28;20064;-85
2020/12/30 02:24:48;;;;;;;0.65;0.40;;;;;;;;;;5011410;28;20018;-86
2020/12/30 02:27:14;;;;;;;0.47;0.47;;;;;;;;;;4993037;28;20061;-85
2020/12/30 02:29:40;;;;;;;0.50;0.30;;;;;;;;;;5011636;28;20030;-85
2020/12/30 02:32:06;;;;;;;1.13;0.60;;;;;;;;;;4994157;28;20032;-86
2020/12/30 02:34:32;;;;;;;0.22;0.20;;;;;;;;;;4992540;28;20312;-86
2020/12/30 02:36:58;;;;;;;0.50;0.50;;;;;;;;;;4994731;28;20141;-86
2020/12/30 02:39:24;;;;;;;0.28;0.20;;;;;;;;;;5030405;28;20025;-85
2020/12/30 02:41:51;;;;;;;0.30;0.30;;;;;;;;;;5031282;28;20035;-86
2020/12/30 02:44:17;;;;;;;0.20;0.17;;;;;;;;;;5011636;28;20518;-86
2020/12/30 02:46:43;;;;;;;0.20;0.20;;;;;;;;;;5013284;28;20033;-85
2020/12/30 02:49:10;;;;;;;0.20;0.10;;;;;;;;;;5013694;28;20025;-86
2020/12/30 02:51:41;;;;;;;0.28;0.28;;;;;;;;;;5030776;28;20563;-86
2020/12/30 02:54:07;;;;;;;0.25;0.20;;;;;;;;;;5011820;28;20115;-86
2020/12/30 02:56:33;;;;;;;0.65;0.40;;;;;;;;;;5029913;28;20056;-86
2020/12/30 02:58:59;;;;;;;0.50;0.22;;;;;;;;;;5012999;28;20048;-86
2020/12/30 03:01:25;;;;;;;0.20;0.20;;;;;;;;;;5030058;28;20025;-86
2020/12/30 03:03:51;;;;;;;0.30;0.13;;;;;;;;;;5029866;28;20025;-86
2020/12/30 03:06:23;;;;;;;0.32;0.28;;;;;;;;;;5028195;28;20030;-85
2020/12/30 03:08:49;;;;;;;0.45;0.35;;;;;;;;;;5030733;28;20036;-86
2020/12/30 03:11:15;;;;;;;0.30;0.30;;;;;;;;;;5012321;28;20048;-86
2020/12/30 03:13:41;;;;;;;0.13;0.13;;;;;;;;;;5004117;28;20175;-86
2020/12/30 03:16:07;;;;;;;0.15;0.15;;;;;;;;;;5012331;28;20025;-86
2020/12/30 03:18:33;;;;;;;0.88;0.30;;;;;;;;;;5028969;28;20021;-86
2020/12/30 03:21:00;;;;;;;0.17;0.17;;;;;;;;;;5012467;28;20120;-86
2020/12/30 03:23:26;;;;;;;0.32;0.10;;;;;;;;;;5012421;28;20040;-86
2020/12/30 03:25:52;;;;;;;0.22;0.22;;;;;;;;;;5029830;28;20330;-85
2020/12/30 03:28:18;;;;;;;0.25;0.20;;;;;;;;;;5011173;28;20033;-85
2020/12/30 03:30:44;;;;;;;0.28;0.20;;;;;;;;;;5028677;28;20543;-85
2020/12/30 03:33:10;;;;;;;0.20;0.20;;;;;;;;;;5012126;28;20044;-86
2020/12/30 03:35:36;;;;;;;0.40;0.40;;;;;;;;;;5011149;28;20380;-86
2020/12/30 03:38:02;;;;;;;0.20;0.20;;;;;;;;;;5018044;28;20038;-86
2020/12/30 03:40:28;;;;;;;0.10;0.10;;;;;;;;;;4992427;28;20101;-86
2020/12/30 03:42:54;;;;;;;0.30;0.30;;;;;;;;;;4991853;28;20481;-86
2020/12/30 03:45:20;;;;;;;0.68;0.63;;;;;;;;;;5010368;28;20451;-85
2020/12/30 03:47:46;;;;;;;0.17;0.17;;;;;;;;;;4992611;28;20243;-85
2020/12/30 03:50:13;;;;;;;0.63;0.50;;;;;;;;;;4992524;28;20022;-85
2020/12/30 03:52:39;;;;;;;0.70;0.28;;;;;;;;;;5008371;28;20084;-85
2020/12/30 03:55:05;;;;;;;0.20;0.17;;;;;;;;;;4992343;28;20129;-85
2020/12/30 03:57:31;;;;;;;0.32;0.32;;;;;;;;;;4992967;28;20030;-85
2020/12/30 03:59:57;;;;;;;0.15;0.10;;;;;;;;;;4990747;28;20025;-86
2020/12/30 04:02:23;;;;;;;0.28;0.28;;;;;;;;;;5008865;28;20057;-86
2020/12/30 04:04:49;;;;;;;0.20;0.15;;;;;;;;;;5009659;28;20524;-86
2020/12/30 04:07:15;;;;;;;0.43;0.43;;;;;;;;;;4992158;28;20022;-85
2020/12/30 04:09:41;;;;;;;0.20;0.20;;;;;;;;;;4991495;28;20026;-86
2020/12/30 04:12:07;;;;;;;0.73;0.20;;;;;;;;;;5010336;28;20022;-85
2020/12/30 04:14:33;;;;;;;0.52;0.20;;;;;;;;;;5008756;28;20034;-86
2020/12/30 04:16:59;;;;;;;0.20;0.20;;;;;;;;;;5009941;28;20054;-85
2020/12/30 04:19:25;;;;;;;0.30;0.20;;;;;;;;;;4992672;28;20041;-86
2020/12/30 04:21:51;;;;;;;0.45;0.45;;;;;;;;;;4991538;28;20026;-86
2020/12/30 04:24:17;;;;;;;0.20;0.20;;;;;;;;;;4990740;28;20033;-86
2020/12/30 04:26:43;;;;;;;0.00;0.00;;;;;;;;;;4992094;28;20037;-86
2020/12/30 04:29:09;;;;;;;0.15;0.15;;;;;;;;;;5010303;28;20033;-86
2020/12/30 04:31:36;;;;;;;0.20;0.20;;;;;;;;;;5013141;28;20100;-86
2020/12/30 04:34:03;;;;;;;0.20;0.20;;;;;;;;;;4995458;28;20034;-86
2020/12/30 04:36:29;;;;;;;0.30;0.30;;;;;;;;;;4994714;28;20040;-85
2020/12/30 04:38:55;;;;;;;0.20;0.20;;;;;;;;;;4994936;28;20029;-85
2020/12/30 04:41:25;;;;;;;0.17;0.17;;;;;;;;;;5014039;28;20485;-85
2020/12/30 04:43:51;;;;;;;0.22;0.22;;;;;;;;;;4993238;28;20505;-85
2020/12/30 04:46:18;;;;;;;0.10;0.10;;;;;;;;;;4995997;28;20417;-85
2020/12/30 04:48:44;;;;;;;0.30;0.30;;;;;;;;;;4996537;28;20113;-86
2020/12/30 04:51:10;;;;;;;0.22;0.20;;;;;;;;;;4994767;28;20057;-85
2020/12/30 04:53:37;;;;;;;0.75;0.30;;;;;;;;;;5013009;28;20265;-86
2020/12/30 04:56:03;;;;;;;0.57;0.20;;;;;;;;;;4994560;28;20030;-86
2020/12/30 04:58:30;;;;;;;0.30;0.10;;;;;;;;;;5013558;28;20499;-85
2020/12/30 05:00:58;;;;;;;0.10;0.10;;;;;;;;;;5013269;28;20030;-85
2020/12/30 05:03:29;;;;;;;0.20;0.20;;;;;;;;;;4994185;28;20029;-85
2020/12/30 05:05:55;;;;;;;1.50;0.85;;;;;;;;;;5010485;28;20089;-85
2020/12/30 05:08:21;;;;;;;0.10;0.10;;;;;;;;;;4995661;28;20025;-85
2020/12/30 05:10:49;;;;;;;0.03;0.03;;;;;;;;;;5013457;28;20509;-85
2020/12/30 05:13:16;;;;;;;0.10;0.10;;;;;;;;;;5011963;28;20022;-85
2020/12/30 05:15:42;;;;;;;0.10;0.10;;;;;;;;;;4994756;28;20054;-85
2020/12/30 05:18:08;;;;;;;0.10;0.10;;;;;;;;;;4994777;28;20022;-85
2020/12/30 05:20:35;;;;;;;0.10;0.10;;;;;;;;;;4995507;28;20026;-85
2020/12/30 05:23:11;;;;;;;0.10;0.10;;;;;;;;;;4994275;28;20133;-86
2020/12/30 05:25:38;;;;;;;0.10;0.10;;;;;;;;;;5011458;28;20520;-85
2020/12/30 05:28:05;;;;;;;0.30;0.20;;;;;;;;;;5012810;28;20123;-85
2020/12/30 05:30:32;;;;;;;0.30;0.30;;;;;;;;;;4995145;28;20029;-86
2020/12/30 05:32:59;;;;;;;0.00;0.00;;;;;;;;;;4994905;28;20121;-86
2020/12/30 05:35:25;;;;;;;0.45;0.30;;;;;;;;;;4992672;28;20040;-86
2020/12/30 05:37:51;;;;;;;0.20;0.20;;;;;;;;;;5000444;28;20025;-86
2020/12/30 05:40:25;;;;;;;0.32;0.20;;;;;;;;;;5029314;28;20469;-86
2020/12/30 05:42:52;;;;;;;0.88;0.22;;;;;;;;;;5031508;28;20052;-85
2020/12/30 05:45:21;;;;;;;0.15;0.15;;;;;;;;;;5030089;28;20033;-86
2020/12/30 05:47:48;;;;;;;0.20;0.20;;;;;;;;;;5014714;28;20014;-86
2020/12/30 05:50:21;;;;;;;0.40;0.17;;;;;;;;;;5013912;28;20068;-86
2020/12/30 05:52:49;;;;;;;0.10;0.10;;;;;;;;;;5031695;28;20440;-85
2020/12/30 05:55:15;;;;;;;0.30;0.30;;;;;;;;;;5031585;28;20108;-85
2020/12/30 05:57:41;;;;;;;0.15;0.10;;;;;;;;;;5013647;28;20021;-85
2020/12/30 06:00:09;;;;;;;0.20;0.20;;;;;;;;;;5031557;28;20024;-86
2020/12/30 06:02:38;;;;;;;0.10;0.10;;;;;;;;;;5013906;28;20485;-86
2020/12/30 06:05:20;;;;;;;0.20;0.10;;;;;;;;;;5030671;28;20512;-86
2020/12/30 06:07:47;;;;;;;0.20;0.20;;;;;;;;;;5029938;28;20525;-85
2020/12/30 06:10:17;;;;;;;0.15;0.15;;;;;;;;;;5014106;28;20037;-86
2020/12/30 06:12:46;;;;;;;0.30;0.10;;;;;;;;;;5012856;28;20090;-86
2020/12/30 06:15:13;;;;;;;0.25;0.10;;;;;;;;;;5031321;28;20524;-86
2020/12/30 06:17:50;;;;;;;0.57;0.40;;;;;;;;;;5012678;28;20029;-86
2020/12/30 06:20:20;;;;;;;0.20;0.20;;;;;;;;;;5013871;28;20021;-85
2020/12/30 06:22:51;;;;;;;0.10;0.10;;;;;;;;;;5011933;28;20025;-86
2020/12/30 06:25:20;;;;;;;0.30;0.17;;;;;;;;;;5013666;28;20064;-85
2020/12/30 06:27:48;;;;;;;0.20;0.20;;;;;;;;;;5011713;28;20496;-86
2020/12/30 06:30:15;;;;;;;0.10;0.10;;;;;;;;;;5031160;28;20083;-85
2020/12/30 06:32:42;;;;;;;0.10;0.10;;;;;;;;;;5012616;28;20060;-86
2020/12/30 06:35:09;;;;;;;0.65;0.20;;;;;;;;;;5012331;28;20025;-86
2020/12/30 06:37:36;;;;;;;0.20;0.20;;;;;;;;;;5023637;28;20571;-85
2020/12/30 06:40:16;;;;;;;0.47;0.25;;;;;;;;;;5009999;28;20014;-86
2020/12/30 06:42:43;;;;;;;0.45;0.17;;;;;;;;;;5009552;28;20456;-85
2020/12/30 06:45:09;;;;;;;0.15;0.10;;;;;;;;;;4992275;28;20033;-85
2020/12/30 06:47:54;;;;;;;0.22;0.20;;;;;;;;;;4993633;28;20033;-85
2020/12/30 06:50:22;;;;;;;0.22;0.22;;;;;;;;;;5009209;28;20017;-86
2020/12/30 06:52:48;;;;;;;1.17;0.73;;;;;;;;;;5009776;28;20080;-86
2020/12/30 06:55:14;;;;;;;3.13;0.70;;;;;;;;;;5016567;28;20033;-85
2020/12/30 06:57:41;;;;;;;0.80;0.60;;;;;;;;;;5009891;28;20060;-85
2020/12/30 07:00:22;;;;;;;1.17;0.90;;;;;;;;;;5028443;28;20607;-85
2020/12/30 07:03:07;;;;;;;1.65;0.60;;;;;;;;;;5011959;28;20504;-85
2020/12/30 07:05:33;;;;;;;2.10;1.00;;;;;;;;;;5025772;28;20033;-86
2020/12/30 07:07:59;;;;;;;1.40;0.90;;;;;;;;;;5019118;28;20067;-86
2020/12/30 07:10:25;;;;;;;1.63;0.90;;;;;;;;;;5008989;28;20023;-87
2020/12/30 07:12:51;;;;;;;1.13;1.05;;;;;;;;;;4997920;28;20535;-87
2020/12/30 07:15:24;;;;;;;2.20;1.83;;;;;;;;;;5027005;28;20425;-86
2020/12/30 07:17:50;;;;;;;1.67;1.25;;;;;;;;;;5015255;28;20030;-88
2020/12/30 07:20:25;;;;;;;2.30;1.05;;;;;;;;;;5012190;28;20021;-89
2020/12/30 07:22:51;;;;;;;1.45;0.90;;;;;;;;;;5007089;28;20064;-87
2020/12/30 07:25:18;;;;;;;1.90;0.95;;;;;;;;;;5015883;28;20068;-87
2020/12/30 07:27:44;;;;;;;2.83;1.10;;;;;;;;;;5013382;28;20100;-85
2020/12/30 07:30:10;;;;;;;2.15;0.85;;;;;;;;;;4993834;28;20168;-88
2020/12/30 07:32:37;;;;;;;1.40;1.27;;;;;;;;;;5029678;28;20033;-86
2020/12/30 07:35:03;;;;;;;1.38;1.23;;;;;;;;;;5024884;28;20034;-85
2020/12/30 07:37:29;;;;;;;1.63;1.08;;;;;;;;;;5017389;28;20017;-86
2020/12/30 07:39:55;;;;;;;1.23;0.90;;;;;;;;;;5032802;28;20029;-87
2020/12/30 07:42:28;;;;;;;1.08;0.93;;;;;;;;;;5024197;28;20072;-87
2020/12/30 07:44:56;;;;;;;1.48;0.98;;;;;;;;;;5012915;28;20890;-87
2020/12/30 07:47:22;;;;;;;3.17;0.60;;;;;;;;;;4995240;28;20116;-90
2020/12/30 07:49:49;;;;;;;0.95;0.93;;;;;;;;;;4997293;28;20037;-86
2020/12/30 07:52:15;;;;;;;1.85;1.17;;;;;;;;;;5012320;28;20032;-86
2020/12/30 07:54:41;;;;;;;1.33;0.75;;;;;;;;;;5016304;28;20089;-85
2020/12/30 07:57:14;;;;;;;1.65;0.93;;;;;;;;;;5011013;28;20038;-85
2020/12/30 07:59:41;;;;;;;1.63;0.80;;;;;;;;;;5011122;28;20092;-85
2020/12/30 08:02:10;;;;;;;2.65;0.73;;;;;;;;;;5015231;28;20481;-86
2020/12/30 08:04:36;;;;;;;10.93;2.08;;;;;;;;;;5031225;28;20092;-87
2020/12/30 08:07:05;;;;;;;0.45;0.45;;;;;;;;;;5018095;28;20126;-85
2020/12/30 08:09:33;;;;;;;0.77;0.57;;;;;;;;;;5014468;28;20096;-91
2020/12/30 08:12:00;;;;;;;0.98;0.80;;;;;;;;;;5017407;28;20918;-86
2020/12/30 08:14:27;;;;;;;0.55;0.50;;;;;;;;;;5035765;28;20584;-87
2020/12/30 08:16:54;;;;;;;0.98;0.90;;;;;;;;;;5035977;28;20403;-86
2020/12/30 08:19:30;;;;;;;2.67;1.10;;;;;;;;;;5018341;28;20022;-86
2020/12/30 08:22:04;;;;;;;0.60;0.50;;;;;;;;;;5018467;28;20029;-86
2020/12/30 08:24:30;;;;;;;;;;;;;;;;;;5018568;28;20021;-87
2020/12/30 08:26:56;;;;;;;0.45;0.40;;;;;;;;;;5025595;28;19909;-87
2020/12/30 08:29:22;;;;;;;1.52;0.70;;;;;;;;;;4999017;28;20030;-86
2020/12/30 08:31:50;;;;;;;1.15;0.75;;;;;;;;;;5025827;28;20026;-86
2020/12/30 08:34:17;;;;;;;2.03;0.77;;;;;;;;;;5018371;28;20036;-86
2020/12/30 08:36:46;;;;;;;0.63;0.50;;;;;;;;;;5013040;28;20032;-86
2020/12/30 08:39:16;;;;;;;0.70;0.70;;;;;;;;;;5010255;28;20018;-87
2020/12/30 08:41:50;;;;;;;1.08;0.52;;;;;;;;;;5035042;28;20117;-87
2020/12/30 08:44:19;;;;;;;1.27;0.88;;;;;;;;;;5034102;28;20038;-87
2020/12/30 08:46:49;;;;;;;3.15;1.23;;;;;;;;;;5034472;28;20021;-87
2020/12/30 08:49:16;;;;;;;0.60;0.60;;;;;;;;;;5034346;28;20056;-87
2020/12/30 08:51:42;;;;;;;1.38;0.57;;;;;;;;;;5035886;28;20026;-86
2020/12/30 08:54:15;;;;;;;0.73;0.60;;;;;;;;;;5034215;28;20044;-87
2020/12/30 08:56:44;;;;;;;2.90;0.50;;;;;;;;;;5035008;28;20021;-87
2020/12/30 08:59:20;;;;;;;1.02;0.50;;;;;;;;;;5033289;28;20260;-87
2020/12/30 09:01:46;;;;;;;2.10;1.02;;;;;;;;;;5023321;28;20874;-88
2020/12/30 09:04:12;;;;;;;1.13;0.73;;;;;;;;;;5015705;28;20025;-89
2020/12/30 09:06:39;;;;;;;4.30;1.70;;;;;;;;;;4998188;28;20084;-89
2020/12/30 09:09:09;;;;;;;1.33;0.60;;;;;;;;;;5000488;28;20083;-89
2020/12/30 09:11:35;;;;;;;0.60;0.60;;;;;;;;;;4995736;28;20147;-88
2020/12/30 09:14:12;;;;;;;1.23;0.43;;;;;;;;;;5015153;28;20037;-89
2020/12/30 09:16:54;;;;;;;0.47;0.45;;;;;;;;;;4996097;28;20121;-89
2020/12/30 09:19:20;;;;;;;1.05;0.80;;;;;;;;;;4997506;28;20022;-89
2020/12/30 09:21:47;;;;;;;1.50;0.68;;;;;;;;;;5013844;28;20034;-88
2020/12/30 09:24:16;;;;;;;0.80;0.80;;;;;;;;;;5015348;28;20077;-89
2020/12/30 09:26:43;;;;;;;1.60;1.00;;;;;;;;;;5003964;28;21170;-90
2020/12/30 09:29:21;;;;;;;0.98;0.80;;;;;;;;;;5014771;28;20013;-89
2020/12/30 09:31:57;;;;;;;0.82;0.82;;;;;;;;;;5017442;28;20030;-89
2020/12/30 09:34:26;;;;;;;1.40;0.75;;;;;;;;;;5032357;28;20025;-89
2020/12/30 09:36:53;;;;;;;1.42;1.20;;;;;;;;;;5015568;28;20022;-89
2020/12/30 09:39:19;;;;;;;1.00;0.80;;;;;;;;;;4994908;28;20409;-90
2020/12/30 09:41:46;;;;;;;4.55;1.30;;;;;;;;;;4996898;28;20033;-87
2020/12/30 09:44:12;;;;;;;1.60;1.50;;;;;;;;;;4993552;28;20053;-90
2020/12/30 09:46:47;;;;;;;1.33;0.95;;;;;;;;;;4995433;28;20026;-89
2020/12/30 09:49:13;;;;;;;1.52;1.15;;;;;;;;;;4994503;28;20048;-90
2020/12/30 09:51:39;;;;;;;2.25;0.82;;;;;;;;;;4993092;28;20026;-92
2020/12/30 09:54:05;;;;;;;0.90;0.90;;;;;;;;;;5012833;28;20100;-90
2020/12/30 09:56:32;;;;;;;1.60;1.42;;;;;;;;;;5013781;28;20029;-90
2020/12/30 09:58:58;;;;;;;0.95;0.90;;;;;;;;;;5012827;28;20128;-89
2020/12/30 10:01:24;;;;;;;2.15;1.95;;;;;;;;;;5015044;28;20151;-89
2020/12/30 10:03:51;;;;;;;1.30;1.10;;;;;;;;;;5033548;28;20440;-90
2020/12/30 10:06:17;;;;;;;1.88;1.25;;;;;;;;;;5005242;28;20026;-89
2020/12/30 10:08:43;;;;;;;0.90;0.90;;;;;;;;;;5018225;28;20033;-89
2020/12/30 10:11:09;;;;;;;1.48;1.08;;;;;;;;;;5029814;28;20029;-92
2020/12/30 10:13:35;;;;;;;1.08;0.88;;;;;;;;;;4999144;28;20420;-89
2020/12/30 10:16:01;;;;;;;3.40;1.33;;;;;;;;;;5009598;28;20535;-90
2020/12/30 10:18:27;;;;;;;1.38;1.27;;;;;;;;;;5015691;28;20033;-88
2020/12/30 10:20:53;;;;;;;1.50;1.20;;;;;;;;;;5032112;28;20025;-90
2020/12/30 10:23:19;;;;;;;1.38;1.20;;;;;;;;;;5032189;28;20079;-89
2020/12/30 10:25:45;;;;;;;2.67;1.23;;;;;;;;;;5010920;28;20037;-89
2020/12/30 10:28:11;;;;;;;2.13;1.92;;;;;;;;;;5009035;28;20029;-88
2020/12/30 10:30:37;;;;;;;2.53;1.38;;;;;;;;;;5011821;28;20125;-92
2020/12/30 10:33:04;;;;;;;2.38;1.40;;;;;;;;;;5005607;28;20034;-88
2020/12/30 10:35:30;;;;;;;1.60;1.50;;;;;;;;;;5027366;28;20156;-88
2020/12/30 10:37:56;;;;;;;2.95;1.80;;;;;;;;;;5005710;28;20030;-87
2020/12/30 10:40:22;;;;;;;1.33;1.20;;;;;;;;;;5007033;28;20037;-88
2020/12/30 10:42:49;;;;;;;1.00;1.00;;;;;;;;;;5015815;28;20116;-88
2020/12/30 10:45:15;;;;;;;3.10;1.10;;;;;;;;;;5016050;28;20032;-90
2020/12/30 10:47:41;;;;;;;1.38;1.27;;;;;;;;;;5008173;28;20471;-91
2020/12/30 10:50:07;;;;;;;1.25;1.15;;;;;;;;;;5013571;28;20554;-90
2020/12/30 10:52:33;;;;;;;3.50;1.33;;;;;;;;;;5005265;28;20037;-92
2020/12/30 10:54:59;;;;;;;2.17;1.63;;;;;;;;;;4995895;28;20042;-89
2020/12/30 10:57:26;;;;;;;2.22;1.60;;;;;;;;;;5013974;28;20433;-87
2020/12/30 10:59:52;;;;;;;1.83;1.58;;;;;;;;;;5013766;28;20022;-88
2020/12/30 11:02:18;;;;;;;1.90;1.42;;;;;;;;;;4996321;28;20049;-94
2020/12/30 11:04:44;;;;;;;1.95;1.70;;;;;;;;;;4980192;28;20514;-90
2020/12/30 11:07:10;;;;;;;1.52;1.42;;;;;;;;;;4996589;28;20029;-90
2020/12/30 11:09:36;;;;;;;1.27;1.17;;;;;;;;;;5008675;28;20031;-91
2020/12/30 11:12:02;;;;;;;4.85;1.50;;;;;;;;;;5016350;28;20036;-93
2020/12/30 11:14:28;;;;;;;1.85;1.70;;;;;;;;;;5033408;28;20171;-88
2020/12/30 11:16:55;;;;;;;1.85;1.45;;;;;;;;;;5033345;28;20017;-89
2020/12/30 11:19:21;;;;;;;1.33;1.20;;;;;;;;;;5015346;28;20020;-91
2020/12/30 11:21:54;;;;;;;1.70;1.60;;;;;;;;;;5006981;28;20025;-91
2020/12/30 11:24:20;;;;;;;1.95;1.35;;;;;;;;;;4995796;28;20037;-91
2020/12/30 11:26:47;;;;;;;1.65;1.55;;;;;;;;;;4996506;28;20062;-93
2020/12/30 11:29:13;;;;;;;1.40;1.27;;;;;;;;;;5025723;28;20029;-92
2020/12/30 11:31:39;;;;;;;2.03;1.48;;;;;;;;;;5032886;28;20035;-92
2020/12/30 11:34:05;;;;;;;1.40;1.30;;;;;;;;;;5033526;28;20036;-91
2020/12/30 11:36:31;;;;;;;2.42;1.50;;;;;;;;;;5015490;28;20017;-91
2020/12/30 11:38:57;;;;;;;1.80;1.58;;;;;;;;;;5015182;28;20029;-90
2020/12/30 11:41:24;;;;;;;1.48;1.38;;;;;;;;;;5015603;28;20366;-90
2020/12/30 11:43:50;;;;;;;1.80;1.70;;;;;;;;;;5033429;28;20041;-91
2020/12/30 11:46:16;;;;;;;2.08;1.98;;;;;;;;;;5015588;28;20022;-91
2020/12/30 11:48:42;;;;;;;1.77;1.40;;;;;;;;;;5032859;28;20033;-91
2020/12/30 11:51:08;;;;;;;1.55;1.45;;;;;;;;;;5033247;28;20421;-90
2020/12/30 11:53:34;;;;;;;1.27;1.17;;;;;;;;;;5015550;28;20404;-92
2020/12/30 11:56:01;;;;;;;6.00;2.47;;;;;;;;;;5015423;28;20025;-90
2020/12/30 11:58:28;;;;;;;2.42;1.42;;;;;;;;;;5015645;28;20032;-91
2020/12/30 12:00:54;;;;;;;2.58;1.40;;;;;;;;;;5033251;28;20396;-91
2020/12/30 12:03:20;;;;;;;2.28;2.08;;;;;;;;;;5015683;28;20528;-92
2020/12/30 12:05:46;;;;;;;2.05;1.73;;;;;;;;;;5013253;28;20030;-91
2020/12/30 12:08:12;;;;;;;1.75;1.58;;;;;;;;;;4989761;28;20069;-89
2020/12/30 12:10:38;;;;;;;1.90;1.75;;;;;;;;;;5031203;28;20056;-91
2020/12/30 12:13:04;;;;;;;2.08;1.88;;;;;;;;;;5033326;28;20109;-92
2020/12/30 12:15:30;;;;;;;1.67;1.58;;;;;;;;;;5033160;28;20021;-91
2020/12/30 12:17:56;;;;;;;2.40;2.20;;;;;;;;;;5015868;28;20481;-92
2020/12/30 12:20:22;;;;;;;1.88;1.73;;;;;;;;;;5032773;28;20508;-91
2020/12/30 12:22:48;;;;;;;1.80;1.70;;;;;;;;;;5033901;28;20014;-93
2020/12/30 12:25:14;;;;;;;2.20;2.00;;;;;;;;;;5016179;28;20064;-94
2020/12/30 12:27:40;;;;;;;2.13;1.73;;;;;;;;;;5006732;28;20033;-89
2020/12/30 12:30:06;;;;;;;1.98;1.65;;;;;;;;;;5032751;28;20025;-89
2020/12/30 12:32:33;;;;;;;1.70;1.60;;;;;;;;;;5023682;28;20041;-89
2020/12/30 12:34:59;;;;;;;2.03;1.92;;;;;;;;;;5015238;28;20033;-91
2020/12/30 12:37:25;;;;;;;1.52;1.42;;;;;;;;;;5000718;28;20021;-89
2020/12/30 12:39:52;;;;;;;5.20;1.85;;;;;;;;;;5032847;28;20022;-88
2020/12/30 12:42:19;;;;;;;1.55;1.45;;;;;;;;;;5032404;28;20751;-89
2020/12/30 12:44:45;;;;;;;3.28;1.83;;;;;;;;;;5015189;28;20057;-89
2020/12/30 12:47:12;;;;;;;3.30;1.48;;;;;;;;;;5015073;28;20084;-88
2020/12/30 12:49:38;;;;;;;1.65;1.45;;;;;;;;;;5032835;28;20484;-90
2020/12/30 12:52:05;;;;;;;2.17;1.60;;;;;;;;;;5013942;28;20084;-89
2020/12/30 12:54:31;;;;;;;1.48;1.38;;;;;;;;;;5036412;28;20053;-90
2020/12/30 12:56:58;;;;;;;1.85;1.52;;;;;;;;;;5022071;28;20029;-90
2020/12/30 12:59:25;;;;;;;5.03;1.80;;;;;;;;;;5015464;28;20057;-89
2020/12/30 13:01:51;;;;;;;1.70;1.00;;;;;;;;;;4999189;28;20037;-89
2020/12/30 13:04:17;;;;;;;1.30;0.98;;;;;;;;;;5015482;28;20509;-89
2020/12/30 13:06:43;;;;;;;1.42;1.30;;;;;;;;;;5014133;28;20030;-90
2020/12/30 13:09:09;;;;;;;1.55;1.13;;;;;;;;;;5002871;28;20477;-90
2020/12/30 13:11:40;;;;;;;1.27;1.05;;;;;;;;;;5015550;28;20060;-90
2020/12/30 13:14:06;;;;;;;2.10;1.35;;;;;;;;;;5018081;28;20025;-90
2020/12/30 13:16:32;;;;;;;2.47;1.30;;;;;;;;;;5016883;28;20030;-90
2020/12/30 13:18:58;;;;;;;1.27;1.08;;;;;;;;;;5018147;28;20017;-90
2020/12/30 13:21:24;;;;;;;1.42;0.98;;;;;;;;;;5018224;28;20044;-90
2020/12/30 13:23:50;;;;;;;1.38;1.15;;;;;;;;;;5017868;28;20021;-90
2020/12/30 13:26:16;;;;;;;2.20;1.48;;;;;;;;;;5017956;28;20030;-90
2020/12/30 13:28:42;;;;;;;1.42;1.33;;;;;;;;;;5035382;28;20025;-90
2020/12/30 13:31:11;;;;;;;1.23;1.10;;;;;;;;;;5018127;28;20096;-90
2020/12/30 13:33:37;;;;;;;1.17;1.08;;;;;;;;;;5035682;28;20022;-90
2020/12/30 13:36:03;;;;;;;1.05;0.85;;;;;;;;;;5035040;28;20025;-90
2020/12/30 13:38:29;;;;;;;1.80;1.27;;;;;;;;;;5017825;28;20079;-90
2020/12/30 13:40:55;;;;;;;1.55;1.45;;;;;;;;;;5035370;28;20404;-88
2020/12/30 13:43:22;;;;;;;7.28;1.10;;;;;;;;;;5018111;28;20021;-92
2020/12/30 13:45:48;;;;;;;2.28;0.90;;;;;;;;;;5018235;28;20504;-92
2020/12/30 13:48:14;;;;;;;0.82;0.80;;;;;;;;;;5019551;28;20408;-93
2020/12/30 13:50:40;;;;;;;1.42;0.98;;;;;;;;;;5036541;28;20112;-93
2020/12/30 13:53:06;;;;;;;2.42;0.93;;;;;;;;;;5018179;28;20033;-91
2020/12/30 13:55:34;;;;;;;0.93;0.93;;;;;;;;;;5018126;28;20041;-93
2020/12/30 13:58:01;;;;;;;1.77;1.45;;;;;;;;;;5018474;28;20022;-94
2020/12/30 14:00:27;;;;;;;1.95;1.42;;;;;;;;;;5013224;28;20021;-90
2020/12/30 14:02:53;;;;;;;1.27;0.80;;;;;;;;;;4999969;28;20026;-89
2020/12/30 14:05:19;;;;;;;2.53;1.10;;;;;;;;;;5014832;28;20064;-88
2020/12/30 14:07:45;;;;;;;1.20;1.10;;;;;;;;;;5034582;28;20029;-90
2020/12/30 14:10:11;;;;;;;1.88;1.38;;;;;;;;;;5031611;28;20036;-87
2020/12/30 14:12:37;;;;;;;2.60;1.20;;;;;;;;;;5035103;28;20041;-91
2020/12/30 14:15:03;;;;;;;1.27;1.05;;;;;;;;;;5034972;28;20029;-91
2020/12/30 14:17:29;;;;;;;1.48;1.10;;;;;;;;;;5016742;28;20005;-93
2020/12/30 14:19:55;;;;;;;1.90;1.20;;;;;;;;;;5016139;28;20036;-91
2020/12/30 14:22:21;;;;;;;1.45;1.20;;;;;;;;;;5016176;28;20022;-89
2020/12/30 14:24:48;;;;;;;1.40;1.30;;;;;;;;;;5031243;28;20091;-91
2020/12/30 14:27:14;;;;;;;1.17;0.90;;;;;;;;;;5016684;28;20034;-87
2020/12/30 14:29:40;;;;;;;1.13;1.02;;;;;;;;;;5016516;28;20030;-89
2020/12/30 14:32:06;;;;;;;1.35;1.17;;;;;;;;;;5013748;28;20026;-90
2020/12/30 14:34:33;;;;;;;1.90;1.08;;;;;;;;;;4996456;28;20100;-89
2020/12/30 14:36:59;;;;;;;1.45;1.13;;;;;;;;;;5018429;28;20022;-90
2020/12/30 14:39:25;;;;;;;2.35;2.08;;;;;;;;;;5005342;28;20497;-89
2020/12/30 14:41:52;;;;;;;0.98;0.98;;;;;;;;;;4996843;28;20068;-89